sensor_id;sensor_type;location;lat;lon;timestamp;temperature;humidity
25024;DHT22;13033;50.936;5.334;2023-11-21T00:00:13;10.20;99.90
25024;DHT22;13033;50.936;5.334;2023-11-21T00:02:40;10.40;99.90
25024;DHT22;13033;50.936;5.334;2023-11-21T00:05:10;10.30;99.90
25024;DHT22;13033;50.936;5.334;2023-11-21T00:07:37;10.20;99.90
25024;DHT22;13033;50.936;5.334;2023-11-21T00:10:03;10.30;99.90
25024;DHT22;13033;50.936;5.334;2023-11-21T00:12:31;10.30;99.90
25024;DHT22;13033;50.936;5.334;2023-11-21T00:14:57;10.00;99.90
25024;DHT22;13033;50.936;5.334;2023-11-21T00:17:23;9.90;99.90
25024;DHT22;13033;50.936;5.334;2023-11-21T00:19:49;9.90;99.90
25024;DHT22;13033;50.936;5.334;2023-11-21T00:22:17;9.90;99.90
25024;DHT22;13033;50.936;5.334;2023-11-21T00:24:43;9.90;99.90
25024;DHT22;13033;50.936;5.334;2023-11-21T00:27:09;10.00;99.90
25024;DHT22;13033;50.936;5.334;2023-11-21T00:29:35;9.90;99.90
25024;DHT22;13033;50.936;5.334;2023-11-21T00:32:00;10.10;99.90
25024;DHT22;13033;50.936;5.334;2023-11-21T00:34:26;10.00;99.90
25024;DHT22;13033;50.936;5.334;2023-11-21T00:36:52;10.00;99.90
25024;DHT22;13033;50.936;5.334;2023-11-21T00:39:18;10.00;99.90
25024;DHT22;13033;50.936;5.334;2023-11-21T00:41:43;10.10;99.90
25024;DHT22;13033;50.936;5.334;2023-11-21T00:44:10;10.20;99.90
25024;DHT22;13033;50.936;5.334;2023-11-21T00:46:36;10.10;99.90
25024;DHT22;13033;50.936;5.334;2023-11-21T00:49:02;10.10;99.90
25024;DHT22;13033;50.936;5.334;2023-11-21T00:51:30;10.00;99.90
25024;DHT22;13033;50.936;5.334;2023-11-21T00:53:55;9.90;99.90
25024;DHT22;13033;50.936;5.334;2023-11-21T00:56:21;10.00;99.90
25024;DHT22;13033;50.936;5.334;2023-11-21T00:58:47;10.00;99.90
25024;DHT22;13033;50.936;5.334;2023-11-21T01:01:16;10.00;99.90
25024;DHT22;13033;50.936;5.334;2023-11-21T01:03:42;10.00;99.90
25024;DHT22;13033;50.936;5.334;2023-11-21T01:06:08;9.90;99.90
25024;DHT22;13033;50.936;5.334;2023-11-21T01:08:34;10.00;99.90
25024;DHT22;13033;50.936;5.334;2023-11-21T01:11:01;10.10;99.90
25024;DHT22;13033;50.936;5.334;2023-11-21T01:13:27;10.10;99.90
25024;DHT22;13033;50.936;5.334;2023-11-21T01:15:54;10.10;99.90
25024;DHT22;13033;50.936;5.334;2023-11-21T01:18:19;10.20;99.90
25024;DHT22;13033;50.936;5.334;2023-11-21T01:20:45;10.10;99.90
25024;DHT22;13033;50.936;5.334;2023-11-21T01:23:12;10.10;99.90
25024;DHT22;13033;50.936;5.334;2023-11-21T01:25:38;10.30;99.90
25024;DHT22;13033;50.936;5.334;2023-11-21T01:28:04;10.20;99.90
25024;DHT22;13033;50.936;5.334;2023-11-21T01:30:29;10.10;99.90
25024;DHT22;13033;50.936;5.334;2023-11-21T01:32:55;9.90;99.90
25024;DHT22;13033;50.936;5.334;2023-11-21T01:35:22;10.00;99.90
25024;DHT22;13033;50.936;5.334;2023-11-21T01:37:47;10.00;99.90
25024;DHT22;13033;50.936;5.334;2023-11-21T01:40:13;10.00;99.90
25024;DHT22;13033;50.936;5.334;2023-11-21T01:42:40;10.10;99.90
25024;DHT22;13033;50.936;5.334;2023-11-21T01:45:06;10.20;99.90
25024;DHT22;13033;50.936;5.334;2023-11-21T01:47:33;10.20;99.90
25024;DHT22;13033;50.936;5.334;2023-11-21T01:50:02;10.10;99.90
25024;DHT22;13033;50.936;5.334;2023-11-21T01:52:30;10.30;99.90
25024;DHT22;13033;50.936;5.334;2023-11-21T01:54:56;10.30;99.90
25024;DHT22;13033;50.936;5.334;2023-11-21T01:57:22;10.30;99.90
25024;DHT22;13033;50.936;5.334;2023-11-21T01:59:49;10.10;99.90
25024;DHT22;13033;50.936;5.334;2023-11-21T02:02:15;10.20;99.90
25024;DHT22;13033;50.936;5.334;2023-11-21T02:04:41;10.30;99.90
25024;DHT22;13033;50.936;5.334;2023-11-21T02:07:07;10.30;99.90
25024;DHT22;13033;50.936;5.334;2023-11-21T02:09:32;10.40;99.90
25024;DHT22;13033;50.936;5.334;2023-11-21T02:11:59;10.20;99.90
25024;DHT22;13033;50.936;5.334;2023-11-21T02:14:26;10.30;99.90
25024;DHT22;13033;50.936;5.334;2023-11-21T02:16:54;10.40;99.90
25024;DHT22;13033;50.936;5.334;2023-11-21T02:19:21;10.20;99.90
25024;DHT22;13033;50.936;5.334;2023-11-21T02:21:56;10.10;99.90
25024;DHT22;13033;50.936;5.334;2023-11-21T02:24:25;10.00;99.90
25024;DHT22;13033;50.936;5.334;2023-11-21T02:26:50;10.00;99.90
25024;DHT22;13033;50.936;5.334;2023-11-21T02:29:18;10.10;99.90
25024;DHT22;13033;50.936;5.334;2023-11-21T02:31:45;10.00;99.90
25024;DHT22;13033;50.936;5.334;2023-11-21T02:34:17;10.20;99.90
25024;DHT22;13033;50.936;5.334;2023-11-21T02:36:44;10.10;99.90
25024;DHT22;13033;50.936;5.334;2023-11-21T02:39:10;10.00;99.90
25024;DHT22;13033;50.936;5.334;2023-11-21T02:41:40;10.00;99.90
25024;DHT22;13033;50.936;5.334;2023-11-21T02:44:06;10.10;99.90
25024;DHT22;13033;50.936;5.334;2023-11-21T02:46:36;10.10;99.90
25024;DHT22;13033;50.936;5.334;2023-11-21T02:49:03;10.10;99.90
25024;DHT22;13033;50.936;5.334;2023-11-21T02:51:29;10.20;99.90
25024;DHT22;13033;50.936;5.334;2023-11-21T02:53:55;10.20;99.90
25024;DHT22;13033;50.936;5.334;2023-11-21T02:56:25;10.40;99.90
25024;DHT22;13033;50.936;5.334;2023-11-21T02:58:52;10.40;99.90
25024;DHT22;13033;50.936;5.334;2023-11-21T03:01:17;10.50;99.90
25024;DHT22;13033;50.936;5.334;2023-11-21T03:03:43;10.60;99.90
25024;DHT22;13033;50.936;5.334;2023-11-21T03:06:09;10.70;99.90
25024;DHT22;13033;50.936;5.334;2023-11-21T03:08:35;10.80;99.90
25024;DHT22;13033;50.936;5.334;2023-11-21T03:11:01;10.60;99.90
25024;DHT22;13033;50.936;5.334;2023-11-21T03:13:28;10.60;99.90
25024;DHT22;13033;50.936;5.334;2023-11-21T03:15:55;10.60;99.90
25024;DHT22;13033;50.936;5.334;2023-11-21T03:18:21;10.70;99.90
25024;DHT22;13033;50.936;5.334;2023-11-21T03:20:51;10.60;99.90
25024;DHT22;13033;50.936;5.334;2023-11-21T03:23:17;10.60;99.90
25024;DHT22;13033;50.936;5.334;2023-11-21T03:25:43;10.70;99.90
25024;DHT22;13033;50.936;5.334;2023-11-21T03:28:09;10.70;99.90
25024;DHT22;13033;50.936;5.334;2023-11-21T03:30:34;10.70;99.90
25024;DHT22;13033;50.936;5.334;2023-11-21T03:33:00;10.30;99.90
25024;DHT22;13033;50.936;5.334;2023-11-21T03:35:26;10.40;99.90
25024;DHT22;13033;50.936;5.334;2023-11-21T03:37:52;10.30;99.90
25024;DHT22;13033;50.936;5.334;2023-11-21T03:40:18;10.20;99.90
25024;DHT22;13033;50.936;5.334;2023-11-21T03:42:43;10.00;99.90
25024;DHT22;13033;50.936;5.334;2023-11-21T03:45:09;10.10;99.90
25024;DHT22;13033;50.936;5.334;2023-11-21T03:47:35;10.10;99.90
25024;DHT22;13033;50.936;5.334;2023-11-21T03:50:01;10.20;99.90
25024;DHT22;13033;50.936;5.334;2023-11-21T03:52:26;10.20;99.90
25024;DHT22;13033;50.936;5.334;2023-11-21T03:54:54;10.00;99.90
25024;DHT22;13033;50.936;5.334;2023-11-21T03:57:20;10.00;99.90
25024;DHT22;13033;50.936;5.334;2023-11-21T03:59:47;10.10;99.90
25024;DHT22;13033;50.936;5.334;2023-11-21T04:02:12;10.30;99.90
25024;DHT22;13033;50.936;5.334;2023-11-21T04:04:38;10.50;99.90
25024;DHT22;13033;50.936;5.334;2023-11-21T04:07:05;10.50;99.90
25024;DHT22;13033;50.936;5.334;2023-11-21T04:09:31;10.60;99.90
25024;DHT22;13033;50.936;5.334;2023-11-21T04:11:56;10.50;99.90
25024;DHT22;13033;50.936;5.334;2023-11-21T04:14:22;10.10;99.90
25024;DHT22;13033;50.936;5.334;2023-11-21T04:16:48;9.90;99.90
25024;DHT22;13033;50.936;5.334;2023-11-21T04:19:14;9.90;99.90
25024;DHT22;13033;50.936;5.334;2023-11-21T04:21:41;9.80;99.90
25024;DHT22;13033;50.936;5.334;2023-11-21T04:24:07;10.10;99.90
25024;DHT22;13033;50.936;5.334;2023-11-21T04:26:33;10.00;99.90
25024;DHT22;13033;50.936;5.334;2023-11-21T04:28:58;10.10;99.90
25024;DHT22;13033;50.936;5.334;2023-11-21T04:31:24;10.20;99.90
25024;DHT22;13033;50.936;5.334;2023-11-21T04:33:50;10.40;99.90
25024;DHT22;13033;50.936;5.334;2023-11-21T04:36:15;10.30;99.90
25024;DHT22;13033;50.936;5.334;2023-11-21T04:38:41;10.20;99.90
25024;DHT22;13033;50.936;5.334;2023-11-21T04:41:07;10.20;99.90
25024;DHT22;13033;50.936;5.334;2023-11-21T04:43:33;10.10;99.90
25024;DHT22;13033;50.936;5.334;2023-11-21T04:45:59;10.10;99.90
25024;DHT22;13033;50.936;5.334;2023-11-21T04:48:25;10.40;99.90
25024;DHT22;13033;50.936;5.334;2023-11-21T04:50:51;10.60;99.90
25024;DHT22;13033;50.936;5.334;2023-11-21T04:53:17;10.50;99.90
25024;DHT22;13033;50.936;5.334;2023-11-21T04:55:43;10.30;99.90
25024;DHT22;13033;50.936;5.334;2023-11-21T04:58:09;10.20;99.90
25024;DHT22;13033;50.936;5.334;2023-11-21T05:00:35;10.30;99.90
25024;DHT22;13033;50.936;5.334;2023-11-21T05:03:04;10.10;99.90
25024;DHT22;13033;50.936;5.334;2023-11-21T05:05:32;10.30;99.90
25024;DHT22;13033;50.936;5.334;2023-11-21T05:07:59;10.40;99.90
25024;DHT22;13033;50.936;5.334;2023-11-21T05:10:25;10.20;99.90
25024;DHT22;13033;50.936;5.334;2023-11-21T05:12:51;10.20;99.90
25024;DHT22;13033;50.936;5.334;2023-11-21T05:15:17;10.30;99.90
25024;DHT22;13033;50.936;5.334;2023-11-21T05:17:44;10.30;99.90
25024;DHT22;13033;50.936;5.334;2023-11-21T05:20:11;10.10;99.90
25024;DHT22;13033;50.936;5.334;2023-11-21T05:22:39;10.20;99.90
25024;DHT22;13033;50.936;5.334;2023-11-21T05:25:06;10.20;99.90
25024;DHT22;13033;50.936;5.334;2023-11-21T05:27:36;10.20;99.90
25024;DHT22;13033;50.936;5.334;2023-11-21T05:30:02;10.30;99.90
25024;DHT22;13033;50.936;5.334;2023-11-21T05:32:31;10.30;99.90
25024;DHT22;13033;50.936;5.334;2023-11-21T05:34:56;10.20;99.90
25024;DHT22;13033;50.936;5.334;2023-11-21T05:37:22;10.30;99.90
25024;DHT22;13033;50.936;5.334;2023-11-21T05:39:49;10.20;99.90
25024;DHT22;13033;50.936;5.334;2023-11-21T05:42:14;10.10;99.90
25024;DHT22;13033;50.936;5.334;2023-11-21T05:44:43;10.00;99.90
25024;DHT22;13033;50.936;5.334;2023-11-21T05:47:09;10.00;99.90
25024;DHT22;13033;50.936;5.334;2023-11-21T05:49:35;10.10;99.90
25024;DHT22;13033;50.936;5.334;2023-11-21T05:52:01;10.00;99.90
25024;DHT22;13033;50.936;5.334;2023-11-21T05:54:27;9.80;99.90
25024;DHT22;13033;50.936;5.334;2023-11-21T05:56:52;9.90;99.90
25024;DHT22;13033;50.936;5.334;2023-11-21T05:59:18;10.10;99.90
25024;DHT22;13033;50.936;5.334;2023-11-21T06:01:45;10.30;99.90
25024;DHT22;13033;50.936;5.334;2023-11-21T06:04:12;10.20;99.90
25024;DHT22;13033;50.936;5.334;2023-11-21T06:06:38;10.10;99.90
25024;DHT22;13033;50.936;5.334;2023-11-21T06:09:04;10.30;99.90
25024;DHT22;13033;50.936;5.334;2023-11-21T06:11:35;10.20;99.90
25024;DHT22;13033;50.936;5.334;2023-11-21T06:14:01;10.20;99.90
25024;DHT22;13033;50.936;5.334;2023-11-21T06:16:26;10.10;99.90
25024;DHT22;13033;50.936;5.334;2023-11-21T06:18:53;10.10;99.90
25024;DHT22;13033;50.936;5.334;2023-11-21T06:21:19;10.30;99.90
25024;DHT22;13033;50.936;5.334;2023-11-21T06:23:44;10.20;99.90
25024;DHT22;13033;50.936;5.334;2023-11-21T06:26:10;10.00;99.90
25024;DHT22;13033;50.936;5.334;2023-11-21T06:28:36;10.10;99.90
25024;DHT22;13033;50.936;5.334;2023-11-21T06:31:02;10.00;99.90
25024;DHT22;13033;50.936;5.334;2023-11-21T06:33:33;10.10;99.90
25024;DHT22;13033;50.936;5.334;2023-11-21T06:35:59;10.10;99.90
25024;DHT22;13033;50.936;5.334;2023-11-21T06:38:28;10.20;99.90
25024;DHT22;13033;50.936;5.334;2023-11-21T06:40:56;10.20;99.90
25024;DHT22;13033;50.936;5.334;2023-11-21T06:43:22;10.10;99.90
25024;DHT22;13033;50.936;5.334;2023-11-21T06:45:47;10.30;99.90
25024;DHT22;13033;50.936;5.334;2023-11-21T06:48:13;10.40;99.90
25024;DHT22;13033;50.936;5.334;2023-11-21T06:50:39;10.20;99.90
25024;DHT22;13033;50.936;5.334;2023-11-21T06:53:05;10.10;99.90
25024;DHT22;13033;50.936;5.334;2023-11-21T06:55:33;10.10;99.90
25024;DHT22;13033;50.936;5.334;2023-11-21T06:57:58;10.10;99.90
25024;DHT22;13033;50.936;5.334;2023-11-21T07:00:25;10.00;99.90
25024;DHT22;13033;50.936;5.334;2023-11-21T07:02:53;10.10;99.90
25024;DHT22;13033;50.936;5.334;2023-11-21T07:05:21;10.10;99.90
25024;DHT22;13033;50.936;5.334;2023-11-21T07:07:47;10.20;99.90
25024;DHT22;13033;50.936;5.334;2023-11-21T07:10:13;10.20;99.90
25024;DHT22;13033;50.936;5.334;2023-11-21T07:12:39;10.10;99.90
25024;DHT22;13033;50.936;5.334;2023-11-21T07:15:06;10.20;99.90
25024;DHT22;13033;50.936;5.334;2023-11-21T07:17:35;10.10;99.90
25024;DHT22;13033;50.936;5.334;2023-11-21T07:20:02;10.30;99.90
25024;DHT22;13033;50.936;5.334;2023-11-21T07:22:28;10.30;99.90
25024;DHT22;13033;50.936;5.334;2023-11-21T07:24:54;10.20;99.90
25024;DHT22;13033;50.936;5.334;2023-11-21T07:27:22;10.30;99.90
25024;DHT22;13033;50.936;5.334;2023-11-21T07:29:47;10.30;99.90
25024;DHT22;13033;50.936;5.334;2023-11-21T07:32:14;10.40;99.90
25024;DHT22;13033;50.936;5.334;2023-11-21T07:34:40;10.40;99.90
25024;DHT22;13033;50.936;5.334;2023-11-21T07:37:07;10.40;99.90
25024;DHT22;13033;50.936;5.334;2023-11-21T07:39:34;10.40;99.90
25024;DHT22;13033;50.936;5.334;2023-11-21T07:42:01;10.40;99.90
25024;DHT22;13033;50.936;5.334;2023-11-21T07:44:28;10.40;99.90
25024;DHT22;13033;50.936;5.334;2023-11-21T07:46:54;10.40;99.90
25024;DHT22;13033;50.936;5.334;2023-11-21T07:49:23;10.50;99.90
25024;DHT22;13033;50.936;5.334;2023-11-21T07:51:49;10.40;99.90
25024;DHT22;13033;50.936;5.334;2023-11-21T07:54:14;10.50;99.90
25024;DHT22;13033;50.936;5.334;2023-11-21T07:56:41;10.50;99.90
25024;DHT22;13033;50.936;5.334;2023-11-21T07:59:06;10.70;99.90
25024;DHT22;13033;50.936;5.334;2023-11-21T08:01:32;10.50;99.90
25024;DHT22;13033;50.936;5.334;2023-11-21T08:03:58;10.60;99.90
25024;DHT22;13033;50.936;5.334;2023-11-21T08:06:27;10.60;99.90
25024;DHT22;13033;50.936;5.334;2023-11-21T08:08:53;10.40;99.90
25024;DHT22;13033;50.936;5.334;2023-11-21T08:11:19;10.20;99.90
25024;DHT22;13033;50.936;5.334;2023-11-21T08:13:46;10.20;99.90
25024;DHT22;13033;50.936;5.334;2023-11-21T08:16:12;10.40;99.90
25024;DHT22;13033;50.936;5.334;2023-11-21T08:18:38;10.40;99.90
25024;DHT22;13033;50.936;5.334;2023-11-21T08:21:05;10.50;99.90
25024;DHT22;13033;50.936;5.334;2023-11-21T08:23:31;10.70;99.90
25024;DHT22;13033;50.936;5.334;2023-11-21T08:25:57;10.80;99.90
25024;DHT22;13033;50.936;5.334;2023-11-21T08:28:23;10.70;99.90
25024;DHT22;13033;50.936;5.334;2023-11-21T08:30:56;10.80;99.90
25024;DHT22;13033;50.936;5.334;2023-11-21T08:33:21;10.70;99.90
25024;DHT22;13033;50.936;5.334;2023-11-21T08:35:48;10.60;99.90
25024;DHT22;13033;50.936;5.334;2023-11-21T08:38:13;10.60;99.90
25024;DHT22;13033;50.936;5.334;2023-11-21T08:40:39;10.80;99.90
25024;DHT22;13033;50.936;5.334;2023-11-21T08:43:05;10.80;99.90
25024;DHT22;13033;50.936;5.334;2023-11-21T08:45:31;10.80;99.90
25024;DHT22;13033;50.936;5.334;2023-11-21T08:47:57;10.70;99.90
25024;DHT22;13033;50.936;5.334;2023-11-21T08:50:23;10.80;99.90
25024;DHT22;13033;50.936;5.334;2023-11-21T08:52:49;10.90;99.90
25024;DHT22;13033;50.936;5.334;2023-11-21T08:55:14;11.00;99.90
25024;DHT22;13033;50.936;5.334;2023-11-21T08:57:42;11.00;99.90
25024;DHT22;13033;50.936;5.334;2023-11-21T09:00:09;11.30;99.90
25024;DHT22;13033;50.936;5.334;2023-11-21T09:02:37;11.10;99.90
25024;DHT22;13033;50.936;5.334;2023-11-21T09:05:05;10.90;99.90
25024;DHT22;13033;50.936;5.334;2023-11-21T09:07:31;11.00;99.90
25024;DHT22;13033;50.936;5.334;2023-11-21T09:09:56;11.10;99.90
25024;DHT22;13033;50.936;5.334;2023-11-21T09:12:22;11.00;99.90
25024;DHT22;13033;50.936;5.334;2023-11-21T09:14:50;10.80;99.90
25024;DHT22;13033;50.936;5.334;2023-11-21T09:17:16;11.00;99.90
25024;DHT22;13033;50.936;5.334;2023-11-21T09:19:42;11.10;99.90
25024;DHT22;13033;50.936;5.334;2023-11-21T09:22:10;11.20;99.90
25024;DHT22;13033;50.936;5.334;2023-11-21T09:24:36;11.40;99.90
25024;DHT22;13033;50.936;5.334;2023-11-21T09:27:03;11.40;99.90
25024;DHT22;13033;50.936;5.334;2023-11-21T09:29:30;11.20;99.90
25024;DHT22;13033;50.936;5.334;2023-11-21T09:31:57;11.20;99.90
25024;DHT22;13033;50.936;5.334;2023-11-21T09:34:27;11.20;99.90
25024;DHT22;13033;50.936;5.334;2023-11-21T09:36:53;11.30;99.90
25024;DHT22;13033;50.936;5.334;2023-11-21T09:39:19;11.40;99.90
25024;DHT22;13033;50.936;5.334;2023-11-21T09:41:52;11.30;99.90
25024;DHT22;13033;50.936;5.334;2023-11-21T09:44:35;11.20;99.90
25024;DHT22;13033;50.936;5.334;2023-11-21T09:47:02;11.40;99.90
25024;DHT22;13033;50.936;5.334;2023-11-21T09:49:28;11.50;99.90
25024;DHT22;13033;50.936;5.334;2023-11-21T09:52:01;11.70;99.90
25024;DHT22;13033;50.936;5.334;2023-11-21T09:54:29;11.80;99.90
25024;DHT22;13033;50.936;5.334;2023-11-21T09:57:00;11.90;99.90
25024;DHT22;13033;50.936;5.334;2023-11-21T09:59:30;11.70;99.90
25024;DHT22;13033;50.936;5.334;2023-11-21T10:01:57;11.90;99.90
25024;DHT22;13033;50.936;5.334;2023-11-21T10:04:26;11.90;99.90
25024;DHT22;13033;50.936;5.334;2023-11-21T10:06:53;11.90;99.90
25024;DHT22;13033;50.936;5.334;2023-11-21T10:09:19;12.00;99.90
25024;DHT22;13033;50.936;5.334;2023-11-21T10:11:47;12.20;99.90
25024;DHT22;13033;50.936;5.334;2023-11-21T10:14:14;12.30;99.90
25024;DHT22;13033;50.936;5.334;2023-11-21T10:16:43;12.20;99.90
25024;DHT22;13033;50.936;5.334;2023-11-21T10:19:10;12.10;99.90
25024;DHT22;13033;50.936;5.334;2023-11-21T10:21:37;12.20;99.90
25024;DHT22;13033;50.936;5.334;2023-11-21T10:24:04;12.40;99.90
25024;DHT22;13033;50.936;5.334;2023-11-21T10:26:30;12.60;99.90
25024;DHT22;13033;50.936;5.334;2023-11-21T10:28:57;12.40;99.90
25024;DHT22;13033;50.936;5.334;2023-11-21T10:31:27;12.30;99.90
25024;DHT22;13033;50.936;5.334;2023-11-21T10:33:53;12.30;99.90
25024;DHT22;13033;50.936;5.334;2023-11-21T10:36:26;12.00;99.90
25024;DHT22;13033;50.936;5.334;2023-11-21T10:38:53;11.90;99.90
25024;DHT22;13033;50.936;5.334;2023-11-21T10:41:19;12.10;99.90
25024;DHT22;13033;50.936;5.334;2023-11-21T10:43:45;12.10;99.90
25024;DHT22;13033;50.936;5.334;2023-11-21T10:46:11;12.10;99.90
25024;DHT22;13033;50.936;5.334;2023-11-21T10:48:37;12.20;99.90
25024;DHT22;13033;50.936;5.334;2023-11-21T10:51:09;12.10;99.90
25024;DHT22;13033;50.936;5.334;2023-11-21T10:53:39;12.10;99.90
25024;DHT22;13033;50.936;5.334;2023-11-21T10:56:08;12.00;99.90
25024;DHT22;13033;50.936;5.334;2023-11-21T10:58:43;12.20;99.90
25024;DHT22;13033;50.936;5.334;2023-11-21T11:01:09;12.30;99.90
25024;DHT22;13033;50.936;5.334;2023-11-21T11:03:37;12.30;99.90
25024;DHT22;13033;50.936;5.334;2023-11-21T11:06:05;12.20;99.90
25024;DHT22;13033;50.936;5.334;2023-11-21T11:08:34;12.30;99.90
25024;DHT22;13033;50.936;5.334;2023-11-21T11:11:01;12.30;99.90
25024;DHT22;13033;50.936;5.334;2023-11-21T11:13:26;12.30;99.90
25024;DHT22;13033;50.936;5.334;2023-11-21T11:15:58;12.30;99.90
25024;DHT22;13033;50.936;5.334;2023-11-21T11:18:30;12.50;99.90
25024;DHT22;13033;50.936;5.334;2023-11-21T11:27:38;12.30;99.90
25024;DHT22;13033;50.936;5.334;2023-11-21T11:35:16;12.10;99.90
25024;DHT22;13033;50.936;5.334;2023-11-21T11:37:43;12.00;99.90
25024;DHT22;13033;50.936;5.334;2023-11-21T11:40:11;12.10;99.90
25024;DHT22;13033;50.936;5.334;2023-11-21T11:42:37;12.40;99.90
25024;DHT22;13033;50.936;5.334;2023-11-21T11:45:17;12.50;99.90
25024;DHT22;13033;50.936;5.334;2023-11-21T11:47:44;12.50;99.90
25024;DHT22;13033;50.936;5.334;2023-11-21T11:50:13;12.40;99.90
25024;DHT22;13033;50.936;5.334;2023-11-21T11:52:47;12.30;99.90
25024;DHT22;13033;50.936;5.334;2023-11-21T11:55:16;12.20;99.90
25024;DHT22;13033;50.936;5.334;2023-11-21T11:57:46;12.10;99.90
25024;DHT22;13033;50.936;5.334;2023-11-21T12:02:54;11.90;99.90
25024;DHT22;13033;50.936;5.334;2023-11-21T12:05:22;11.70;99.90
25024;DHT22;13033;50.936;5.334;2023-11-21T12:08:04;11.70;99.90
25024;DHT22;13033;50.936;5.334;2023-11-21T12:10:35;11.60;99.90
25024;DHT22;13033;50.936;5.334;2023-11-21T12:15:28;11.80;99.90
25024;DHT22;13033;50.936;5.334;2023-11-21T12:17:56;11.90;99.90
25024;DHT22;13033;50.936;5.334;2023-11-21T12:20:23;12.00;99.90
25024;DHT22;13033;50.936;5.334;2023-11-21T12:22:54;12.00;99.90
25024;DHT22;13033;50.936;5.334;2023-11-21T12:25:23;12.10;99.90
25024;DHT22;13033;50.936;5.334;2023-11-21T12:27:51;12.10;99.90
25024;DHT22;13033;50.936;5.334;2023-11-21T12:30:19;12.10;99.90
25024;DHT22;13033;50.936;5.334;2023-11-21T12:32:47;12.10;99.90
25024;DHT22;13033;50.936;5.334;2023-11-21T12:35:14;12.20;99.90
25024;DHT22;13033;50.936;5.334;2023-11-21T12:37:40;12.50;99.90
25024;DHT22;13033;50.936;5.334;2023-11-21T12:40:09;12.50;99.90
25024;DHT22;13033;50.936;5.334;2023-11-21T12:42:42;12.50;99.90
25024;DHT22;13033;50.936;5.334;2023-11-21T12:45:25;12.60;99.90
25024;DHT22;13033;50.936;5.334;2023-11-21T12:48:00;12.70;99.90
25024;DHT22;13033;50.936;5.334;2023-11-21T12:50:30;12.60;99.90
25024;DHT22;13033;50.936;5.334;2023-11-21T12:53:09;12.40;99.90
25024;DHT22;13033;50.936;5.334;2023-11-21T12:55:36;12.20;99.90
25024;DHT22;13033;50.936;5.334;2023-11-21T12:58:09;12.20;99.90
25024;DHT22;13033;50.936;5.334;2023-11-21T13:00:44;12.10;99.90
25024;DHT22;13033;50.936;5.334;2023-11-21T13:03:12;12.10;99.90
25024;DHT22;13033;50.936;5.334;2023-11-21T13:05:41;12.20;99.90
25024;DHT22;13033;50.936;5.334;2023-11-21T13:08:11;12.30;99.90
25024;DHT22;13033;50.936;5.334;2023-11-21T13:10:43;12.50;99.90
25024;DHT22;13033;50.936;5.334;2023-11-21T13:13:12;12.70;99.90
25024;DHT22;13033;50.936;5.334;2023-11-21T13:15:53;12.70;99.90
25024;DHT22;13033;50.936;5.334;2023-11-21T13:18:25;12.60;99.90
25024;DHT22;13033;50.936;5.334;2023-11-21T13:20:58;12.60;99.90
25024;DHT22;13033;50.936;5.334;2023-11-21T13:23:25;12.40;99.90
25024;DHT22;13033;50.936;5.334;2023-11-21T13:25:55;12.40;99.90
25024;DHT22;13033;50.936;5.334;2023-11-21T13:28:21;12.40;99.90
25024;DHT22;13033;50.936;5.334;2023-11-21T13:30:48;12.30;99.90
25024;DHT22;13033;50.936;5.334;2023-11-21T13:33:14;12.40;99.90
25024;DHT22;13033;50.936;5.334;2023-11-21T13:35:46;12.60;99.90
25024;DHT22;13033;50.936;5.334;2023-11-21T13:38:17;12.60;99.90
25024;DHT22;13033;50.936;5.334;2023-11-21T13:40:51;12.70;99.90
25024;DHT22;13033;50.936;5.334;2023-11-21T13:43:23;12.80;99.90
25024;DHT22;13033;50.936;5.334;2023-11-21T13:45:51;12.80;99.90
25024;DHT22;13033;50.936;5.334;2023-11-21T13:48:23;12.70;99.90
25024;DHT22;13033;50.936;5.334;2023-11-21T13:50:57;12.50;99.90
25024;DHT22;13033;50.936;5.334;2023-11-21T13:53:41;12.40;99.90
25024;DHT22;13033;50.936;5.334;2023-11-21T13:56:08;12.20;99.90
25024;DHT22;13033;50.936;5.334;2023-11-21T13:58:34;12.30;99.90
25024;DHT22;13033;50.936;5.334;2023-11-21T14:01:18;12.30;99.90
25024;DHT22;13033;50.936;5.334;2023-11-21T14:04:00;12.30;99.90
25024;DHT22;13033;50.936;5.334;2023-11-21T14:06:43;12.30;99.90
25024;DHT22;13033;50.936;5.334;2023-11-21T14:09:20;12.40;99.90
25024;DHT22;13033;50.936;5.334;2023-11-21T14:11:57;12.40;99.90
25024;DHT22;13033;50.936;5.334;2023-11-21T14:14:27;12.40;99.90
25024;DHT22;13033;50.936;5.334;2023-11-21T14:16:56;12.50;99.90
25024;DHT22;13033;50.936;5.334;2023-11-21T14:19:23;12.40;99.90
25024;DHT22;13033;50.936;5.334;2023-11-21T14:21:52;12.60;99.90
25024;DHT22;13033;50.936;5.334;2023-11-21T14:24:18;12.70;99.90
25024;DHT22;13033;50.936;5.334;2023-11-21T14:26:45;12.60;99.90
25024;DHT22;13033;50.936;5.334;2023-11-21T14:29:12;12.40;99.90
25024;DHT22;13033;50.936;5.334;2023-11-21T14:31:40;12.40;99.90
25024;DHT22;13033;50.936;5.334;2023-11-21T14:34:07;12.40;99.90
25024;DHT22;13033;50.936;5.334;2023-11-21T14:36:34;12.50;99.90
25024;DHT22;13033;50.936;5.334;2023-11-21T14:39:00;12.60;99.90
25024;DHT22;13033;50.936;5.334;2023-11-21T14:41:25;12.60;99.90
25024;DHT22;13033;50.936;5.334;2023-11-21T14:43:53;12.70;99.90
25024;DHT22;13033;50.936;5.334;2023-11-21T14:46:19;12.60;99.90
25024;DHT22;13033;50.936;5.334;2023-11-21T14:48:45;12.50;99.90
25024;DHT22;13033;50.936;5.334;2023-11-21T14:51:25;12.60;99.90
25024;DHT22;13033;50.936;5.334;2023-11-21T14:53:58;12.70;99.90
25024;DHT22;13033;50.936;5.334;2023-11-21T14:56:32;12.60;99.90
25024;DHT22;13033;50.936;5.334;2023-11-21T14:59:02;12.70;99.90
25024;DHT22;13033;50.936;5.334;2023-11-21T15:01:34;12.80;99.90
25024;DHT22;13033;50.936;5.334;2023-11-21T15:04:19;12.70;99.90
25024;DHT22;13033;50.936;5.334;2023-11-21T15:07:04;12.60;99.90
25024;DHT22;13033;50.936;5.334;2023-11-21T15:09:30;12.50;99.90
25024;DHT22;13033;50.936;5.334;2023-11-21T15:12:06;12.30;99.90
25024;DHT22;13033;50.936;5.334;2023-11-21T15:14:49;12.40;99.90
25024;DHT22;13033;50.936;5.334;2023-11-21T15:17:18;12.40;99.90
25024;DHT22;13033;50.936;5.334;2023-11-21T15:19:56;12.40;99.90
25024;DHT22;13033;50.936;5.334;2023-11-21T15:22:22;12.30;99.90
25024;DHT22;13033;50.936;5.334;2023-11-21T15:24:48;12.20;99.90
25024;DHT22;13033;50.936;5.334;2023-11-21T15:27:15;12.20;99.90
25024;DHT22;13033;50.936;5.334;2023-11-21T15:29:42;12.20;99.90
25024;DHT22;13033;50.936;5.334;2023-11-21T15:32:09;12.00;99.90
25024;DHT22;13033;50.936;5.334;2023-11-21T15:34:36;12.00;99.90
25024;DHT22;13033;50.936;5.334;2023-11-21T15:37:03;12.00;99.90
25024;DHT22;13033;50.936;5.334;2023-11-21T15:39:29;12.00;99.90
25024;DHT22;13033;50.936;5.334;2023-11-21T15:41:57;12.00;99.90
25024;DHT22;13033;50.936;5.334;2023-11-21T15:44:23;12.00;99.90
25024;DHT22;13033;50.936;5.334;2023-11-21T15:46:51;12.00;99.90
25024;DHT22;13033;50.936;5.334;2023-11-21T15:49:17;12.00;99.90
25024;DHT22;13033;50.936;5.334;2023-11-21T15:51:47;12.10;99.90